Time;durP1;ratioP1;P1;durP2;ratioP2;P2;SDS_P1;SDS_P2;PMS_P1;PMS_P2;Temp;Humidity;BMP_temperature;BMP_pressure;BME280_temperature;BME280_humidity;BME280_pressure;Samples;Min_cycle;Max_cycle;Signal;HPM_P1;HPM_P2
2022/05/06 00:00:00;;;;;;;18.17;9.18;;;;;;;;;;5083626;28;20540;-69
2022/05/06 00:02:25;;;;;;;17.70;8.20;;;;;;;;;;5084238;28;20033;-70
2022/05/06 00:04:51;;;;;;;16.73;7.45;;;;;;;;;;5083885;28;20020;-70
2022/05/06 00:07:17;;;;;;;19.73;7.70;;;;;;;;;;5083717;28;20078;-70
2022/05/06 00:09:44;;;;;;;19.77;8.35;;;;;;;;;;5083169;28;20016;-69
2022/05/06 00:12:12;;;;;;;21.05;8.77;;;;;;;;;;5082501;28;20120;-70
2022/05/06 00:14:38;;;;;;;16.30;8.32;;;;;;;;;;5083784;28;20042;-69
2022/05/06 00:17:04;;;;;;;21.40;8.35;;;;;;;;;;5083905;28;20115;-70
2022/05/06 00:19:29;;;;;;;20.13;9.85;;;;;;;;;;5081867;28;20028;-70
2022/05/06 00:21:54;;;;;;;18.48;8.55;;;;;;;;;;5083521;28;20082;-70
2022/05/06 00:24:20;;;;;;;19.75;9.15;;;;;;;;;;5075039;28;20032;-70
2022/05/06 00:26:45;;;;;;;15.93;8.30;;;;;;;;;;5077601;28;20032;-70
2022/05/06 00:29:10;;;;;;;17.85;8.70;;;;;;;;;;5070518;28;20102;-69
2022/05/06 00:31:36;;;;;;;20.15;8.65;;;;;;;;;;5065193;28;20040;-70
2022/05/06 00:34:01;;;;;;;20.65;9.45;;;;;;;;;;5075519;28;20086;-70
2022/05/06 00:36:26;;;;;;;20.88;10.20;;;;;;;;;;5069602;28;20028;-70
2022/05/06 00:38:52;;;;;;;25.13;10.52;;;;;;;;;;5069584;28;20075;-70
2022/05/06 00:41:18;;;;;;;22.08;11.32;;;;;;;;;;5070526;28;20102;-69
2022/05/06 00:43:43;;;;;;;21.48;11.05;;;;;;;;;;5070597;28;20669;-69
2022/05/06 00:46:15;;;;;;;25.38;11.05;;;;;;;;;;5068252;28;20036;-70
2022/05/06 00:48:45;;;;;;;21.73;9.35;;;;;;;;;;5052502;28;20032;-70
2022/05/06 00:51:11;;;;;;;18.77;8.48;;;;;;;;;;5050827;28;20025;-70
2022/05/06 00:53:37;;;;;;;22.67;9.40;;;;;;;;;;5050043;28;20519;-70
2022/05/06 00:56:04;;;;;;;18.75;8.90;;;;;;;;;;5050423;28;20041;-70
2022/05/06 00:58:31;;;;;;;17.02;8.85;;;;;;;;;;5065850;28;20036;-70
2022/05/06 01:00:56;;;;;;;18.48;8.77;;;;;;;;;;5070049;28;20047;-69
2022/05/06 01:03:22;;;;;;;16.70;7.93;;;;;;;;;;5065461;28;20020;-69
2022/05/06 01:05:49;;;;;;;17.10;8.18;;;;;;;;;;5069037;28;20041;-70
2022/05/06 01:08:16;;;;;;;16.27;8.25;;;;;;;;;;5055945;28;20033;-68
2022/05/06 01:10:43;;;;;;;17.52;8.60;;;;;;;;;;5051085;28;20067;-70
2022/05/06 01:13:08;;;;;;;19.98;8.75;;;;;;;;;;5053623;28;20037;-70
2022/05/06 01:15:33;;;;;;;18.05;8.75;;;;;;;;;;5060888;28;20028;-69
2022/05/06 01:17:59;;;;;;;21.15;9.25;;;;;;;;;;5058345;28;20041;-70
2022/05/06 01:20:26;;;;;;;21.20;9.20;;;;;;;;;;5059115;28;20036;-70
2022/05/06 01:22:59;;;;;;;20.63;9.32;;;;;;;;;;5062603;28;20117;-69
2022/05/06 01:25:25;;;;;;;;;;;;;;;;;;5066567;28;20041;-69
2022/05/06 01:28:04;;;;;;;18.90;8.32;;;;;;;;;;5051592;28;20000;-70
2022/05/06 01:30:36;;;;;;;19.13;8.43;;;;;;;;;;5063737;28;20548;-70
2022/05/06 01:33:04;;;;;;;18.03;8.40;;;;;;;;;;5064960;28;20036;-70
2022/05/06 01:35:32;;;;;;;18.23;9.27;;;;;;;;;;5060543;28;20075;-70
2022/05/06 01:38:03;;;;;;;19.42;8.30;;;;;;;;;;5069260;28;20033;-69
2022/05/06 01:40:33;;;;;;;17.10;8.65;;;;;;;;;;5055258;28;20037;-70
2022/05/06 01:43:01;;;;;;;19.20;9.02;;;;;;;;;;5059728;28;20112;-70
2022/05/06 01:45:29;;;;;;;22.00;9.18;;;;;;;;;;5069625;28;20020;-70
2022/05/06 01:47:55;;;;;;;18.42;8.65;;;;;;;;;;5066865;28;20123;-69
2022/05/06 01:50:21;;;;;;;21.20;8.93;;;;;;;;;;5051058;28;20464;-69
2022/05/06 01:52:51;;;;;;;18.05;8.68;;;;;;;;;;5066550;28;20599;-70
2022/05/06 01:55:17;;;;;;;21.52;9.10;;;;;;;;;;5049057;28;20021;-69
2022/05/06 01:57:44;;;;;;;20.50;9.15;;;;;;;;;;5048730;28;20024;-69
2022/05/06 02:00:12;;;;;;;20.45;8.85;;;;;;;;;;5068754;28;20033;-69
2022/05/06 02:02:37;;;;;;;23.08;9.60;;;;;;;;;;5068506;28;20097;-70
2022/05/06 02:05:18;;;;;;;21.10;9.82;;;;;;;;;;5069040;28;20437;-69
2022/05/06 02:07:52;;;;;;;22.15;9.20;;;;;;;;;;5068604;28;20056;-70
2022/05/06 02:10:20;;;;;;;22.63;9.07;;;;;;;;;;5056211;28;20113;-70
2022/05/06 02:12:46;;;;;;;19.73;9.07;;;;;;;;;;5068288;28;20028;-70
2022/05/06 02:15:12;;;;;;;22.95;9.88;;;;;;;;;;5063788;28;20486;-70
2022/05/06 02:17:39;;;;;;;20.58;8.52;;;;;;;;;;5057895;28;20033;-70
2022/05/06 02:20:06;;;;;;;19.92;9.75;;;;;;;;;;5065568;28;20129;-70
2022/05/06 02:22:32;;;;;;;21.05;9.00;;;;;;;;;;5062089;28;20032;-69
2022/05/06 02:24:57;;;;;;;21.75;9.65;;;;;;;;;;5062644;28;20111;-69
2022/05/06 02:27:23;;;;;;;21.92;9.15;;;;;;;;;;5060674;28;20116;-70
2022/05/06 02:35:16;;;;;;;31.15;12.55;;;;;;;;;;5067806;28;19961;-70
2022/05/06 02:37:41;;;;;;;34.42;11.38;;;;;;;;;;5063276;28;20025;-69
2022/05/06 02:40:09;;;;;;;26.63;11.43;;;;;;;;;;5067555;28;20032;-69
2022/05/06 02:42:34;;;;;;;34.35;13.13;;;;;;;;;;5053985;28;20101;-70
2022/05/06 02:44:59;;;;;;;32.03;12.75;;;;;;;;;;5063045;28;20469;-69
2022/05/06 02:47:25;;;;;;;33.80;12.80;;;;;;;;;;5067065;28;20033;-69
2022/05/06 02:49:52;;;;;;;34.95;13.27;;;;;;;;;;5055184;28;20037;-69
2022/05/06 02:52:18;;;;;;;28.40;11.75;;;;;;;;;;5067783;28;20495;-68
2022/05/06 02:54:44;;;;;;;30.23;11.98;;;;;;;;;;5067420;28;20044;-69
2022/05/06 02:57:09;;;;;;;31.48;13.18;;;;;;;;;;5068472;28;20048;-69
2022/05/06 02:59:35;;;;;;;30.55;11.82;;;;;;;;;;5054593;28;20032;-69
2022/05/06 03:02:00;;;;;;;33.78;13.32;;;;;;;;;;5066646;28;20077;-69
2022/05/06 03:04:25;;;;;;;41.88;13.55;;;;;;;;;;5067882;28;20029;-69
2022/05/06 03:06:52;;;;;;;31.58;13.25;;;;;;;;;;5068035;28;20032;-69
2022/05/06 03:09:17;;;;;;;28.13;11.38;;;;;;;;;;5054816;28;20112;-69
2022/05/06 03:11:43;;;;;;;34.63;13.32;;;;;;;;;;5048039;28;20108;-69
2022/05/06 03:14:08;;;;;;;31.77;13.38;;;;;;;;;;5047884;28;20076;-69
2022/05/06 03:16:33;;;;;;;67.78;15.50;;;;;;;;;;5057061;28;20041;-69
2022/05/06 03:19:00;;;;;;;46.10;14.23;;;;;;;;;;5056223;28;20036;-69
2022/05/06 03:21:26;;;;;;;74.20;15.43;;;;;;;;;;5066884;28;20074;-69
2022/05/06 03:23:52;;;;;;;61.85;15.77;;;;;;;;;;5065927;28;20040;-69
2022/05/06 03:26:17;;;;;;;72.72;15.02;;;;;;;;;;5067292;28;20094;-69
2022/05/06 03:28:43;;;;;;;72.32;14.45;;;;;;;;;;5059449;28;20507;-69
2022/05/06 03:31:11;;;;;;;88.45;14.40;;;;;;;;;;5061245;28;20041;-69
2022/05/06 03:33:37;;;;;;;101.22;14.02;;;;;;;;;;5056136;28;20037;-69
2022/05/06 03:36:02;;;;;;;57.25;13.85;;;;;;;;;;5061691;28;20017;-70
2022/05/06 03:38:28;;;;;;;89.38;14.85;;;;;;;;;;5053589;28;20025;-69
2022/05/06 03:40:55;;;;;;;145.35;16.80;;;;;;;;;;5066404;28;20028;-69
2022/05/06 03:43:20;;;;;;;87.95;13.23;;;;;;;;;;5058290;28;20040;-69
2022/05/06 03:45:46;;;;;;;43.40;14.23;;;;;;;;;;5049628;28;20026;-69
2022/05/06 03:48:11;;;;;;;45.50;14.23;;;;;;;;;;5051663;28;20025;-69
2022/05/06 03:53:24;;;;;;;113.88;13.90;;;;;;;;;;5067147;28;20123;-69
2022/05/06 03:55:49;;;;;;;54.63;13.30;;;;;;;;;;5067155;28;20041;-69
2022/05/06 03:58:15;;;;;;;95.45;13.63;;;;;;;;;;5061743;28;20033;-69
2022/05/06 04:00:40;;;;;;;172.20;15.27;;;;;;;;;;5057399;28;20039;-69
2022/05/06 04:03:06;;;;;;;142.05;15.77;;;;;;;;;;5066031;28;20028;-69
2022/05/06 04:05:33;;;;;;;50.90;13.63;;;;;;;;;;5069055;28;20033;-69
2022/05/06 04:08:00;;;;;;;70.50;15.43;;;;;;;;;;5067825;28;20325;-69
2022/05/06 04:10:26;;;;;;;79.53;14.07;;;;;;;;;;5051006;28;20040;-69
2022/05/06 04:12:53;;;;;;;49.30;13.82;;;;;;;;;;5050936;28;20028;-69
2022/05/06 04:15:19;;;;;;;48.38;13.35;;;;;;;;;;5056049;28;20021;-69
2022/05/06 04:17:45;;;;;;;37.20;13.07;;;;;;;;;;5050992;28;20207;-69
2022/05/06 04:25:39;;;;;;;;;;;;;;;;;;5070546;28;20124;-69
2022/05/06 04:28:04;;;;;;;45.33;10.95;;;;;;;;;;5064593;28;20353;-68
2022/05/06 04:30:30;;;;;;;50.33;11.05;;;;;;;;;;5067841;28;20032;-68
2022/05/06 04:32:55;;;;;;;73.60;11.25;;;;;;;;;;5051523;28;20158;-69
2022/05/06 04:35:21;;;;;;;42.70;11.77;;;;;;;;;;5064468;28;20131;-69
2022/05/06 04:37:46;;;;;;;76.45;12.77;;;;;;;;;;5068780;28;20502;-68
2022/05/06 04:40:12;;;;;;;56.28;12.50;;;;;;;;;;5049947;28;20041;-70
2022/05/06 04:42:37;;;;;;;50.05;12.43;;;;;;;;;;5066759;28;20525;-69
2022/05/06 04:45:04;;;;;;;84.15;12.05;;;;;;;;;;5070041;28;20040;-69
2022/05/06 04:47:29;;;;;;;57.20;12.40;;;;;;;;;;5069864;28;20074;-69
2022/05/06 04:49:54;;;;;;;36.35;10.93;;;;;;;;;;5054840;28;20049;-68
2022/05/06 04:52:20;;;;;;;27.30;11.15;;;;;;;;;;5068324;28;20399;-69
2022/05/06 04:54:46;;;;;;;37.22;11.38;;;;;;;;;;5068095;28;20028;-70
2022/05/06 04:57:11;;;;;;;86.28;11.93;;;;;;;;;;5069990;28;20024;-69
2022/05/06 04:59:36;;;;;;;36.72;11.80;;;;;;;;;;5054245;28;20047;-70
2022/05/06 05:02:02;;;;;;;43.92;12.82;;;;;;;;;;5049381;28;20068;-69
2022/05/06 05:04:28;;;;;;;21.30;11.27;;;;;;;;;;5070075;28;20033;-70
2022/05/06 05:06:57;;;;;;;24.33;10.93;;;;;;;;;;5069968;28;20541;-70
2022/05/06 05:09:22;;;;;;;37.90;11.65;;;;;;;;;;5057472;28;20518;-70
2022/05/06 05:11:47;;;;;;;34.53;10.38;;;;;;;;;;5054694;28;20041;-69
2022/05/06 05:14:13;;;;;;;30.70;11.43;;;;;;;;;;5049885;28;20061;-69
2022/05/06 05:16:39;;;;;;;29.95;10.38;;;;;;;;;;5054419;28;20033;-69
2022/05/06 05:19:04;;;;;;;27.77;10.27;;;;;;;;;;5059186;28;20501;-69
2022/05/06 05:21:29;;;;;;;31.17;10.85;;;;;;;;;;5048411;28;20033;-69
2022/05/06 05:23:55;;;;;;;20.05;10.30;;;;;;;;;;5062226;28;20066;-69
2022/05/06 05:26:20;;;;;;;29.33;10.40;;;;;;;;;;5056910;28;20509;-69
2022/05/06 05:28:45;;;;;;;39.03;10.90;;;;;;;;;;5055286;28;20075;-68
2022/05/06 05:31:11;;;;;;;18.05;9.85;;;;;;;;;;5056868;28;20718;-68
2022/05/06 05:33:36;;;;;;;31.35;9.57;;;;;;;;;;5060725;28;20040;-69
2022/05/06 05:36:02;;;;;;;25.88;9.80;;;;;;;;;;5068093;28;20043;-70
2022/05/06 05:38:27;;;;;;;16.88;9.45;;;;;;;;;;5060248;28;20575;-70
2022/05/06 05:40:52;;;;;;;40.22;10.40;;;;;;;;;;5065780;28;20044;-70
2022/05/06 05:48:45;;;;;;;61.78;9.30;;;;;;;;;;5067143;28;20437;-70
2022/05/06 05:51:10;;;;;;;31.92;9.98;;;;;;;;;;5068209;28;20056;-69
2022/05/06 05:53:37;;;;;;;67.32;10.95;;;;;;;;;;5061206;28;20177;-70
2022/05/06 05:56:02;;;;;;;43.53;10.50;;;;;;;;;;5066300;28;20067;-70
2022/05/06 05:58:28;;;;;;;26.75;10.02;;;;;;;;;;5067585;28;20044;-69
2022/05/06 06:00:53;;;;;;;24.58;9.70;;;;;;;;;;5062566;28;20040;-70
2022/05/06 06:03:18;;;;;;;43.40;9.60;;;;;;;;;;5064564;28;20048;-70
2022/05/06 06:05:44;;;;;;;37.00;9.90;;;;;;;;;;5066337;28;20059;-70
2022/05/06 06:08:10;;;;;;;21.80;10.05;;;;;;;;;;5061149;28;20076;-69
2022/05/06 06:10:35;;;;;;;34.05;9.75;;;;;;;;;;5050515;28;20051;-70
2022/05/06 06:13:04;;;;;;;28.48;9.77;;;;;;;;;;5054718;28;20090;-69
2022/05/06 06:15:29;;;;;;;31.77;10.38;;;;;;;;;;5055950;28;20068;-69
2022/05/06 06:17:55;;;;;;;20.95;10.20;;;;;;;;;;5059119;28;20071;-70
2022/05/06 06:20:21;;;;;;;19.67;9.88;;;;;;;;;;5062923;28;20132;-70
2022/05/06 06:22:47;;;;;;;19.05;9.95;;;;;;;;;;5067257;28;20033;-70
2022/05/06 06:25:12;;;;;;;68.65;11.00;;;;;;;;;;5067836;28;20398;-70
2022/05/06 06:27:37;;;;;;;20.30;9.75;;;;;;;;;;5062130;28;20106;-70
2022/05/06 06:30:03;;;;;;;35.63;9.98;;;;;;;;;;5063286;28;20045;-70
2022/05/06 06:32:29;;;;;;;44.60;10.63;;;;;;;;;;5056677;28;20037;-70
2022/05/06 06:34:55;;;;;;;23.15;10.13;;;;;;;;;;5054367;28;20055;-70
2022/05/06 06:37:21;;;;;;;50.95;11.30;;;;;;;;;;5057046;28;20047;-69
2022/05/06 06:39:46;;;;;;;28.25;9.95;;;;;;;;;;5052221;28;20009;-69
2022/05/06 06:42:12;;;;;;;39.70;9.82;;;;;;;;;;5054557;28;20048;-70
2022/05/06 06:44:37;;;;;;;62.13;10.32;;;;;;;;;;5054544;28;20032;-69
2022/05/06 06:47:08;;;;;;;18.58;9.73;;;;;;;;;;5055969;28;20044;-70
2022/05/06 06:49:33;;;;;;;30.02;10.15;;;;;;;;;;5053463;28;21283;-69
2022/05/06 06:51:59;;;;;;;42.80;11.13;;;;;;;;;;5055033;28;20039;-70
2022/05/06 06:54:24;;;;;;;33.75;10.07;;;;;;;;;;5059771;28;20542;-69
2022/05/06 06:56:49;;;;;;;21.02;9.38;;;;;;;;;;5054628;28;20110;-69
2022/05/06 06:59:15;;;;;;;17.10;9.82;;;;;;;;;;5057228;28;20032;-68
2022/05/06 07:01:40;;;;;;;23.42;8.88;;;;;;;;;;5048831;28;20036;-70
2022/05/06 07:04:05;;;;;;;17.85;9.75;;;;;;;;;;5057055;28;20029;-69
2022/05/06 07:11:58;;;;;;;;;;;;;;;;;;5060705;28;20136;-69
2022/05/06 07:14:25;;;;;;;17.00;9.07;;;;;;;;;;5065005;28;20007;-69
2022/05/06 07:16:52;;;;;;;31.30;9.63;;;;;;;;;;5067495;28;20041;-70
2022/05/06 07:19:17;;;;;;;25.85;9.13;;;;;;;;;;5067046;28;20436;-70
2022/05/06 07:21:44;;;;;;;19.15;8.73;;;;;;;;;;5064041;28;20059;-70
2022/05/06 07:24:09;;;;;;;17.73;8.85;;;;;;;;;;5055330;28;20039;-70
2022/05/06 07:26:34;;;;;;;23.55;9.52;;;;;;;;;;5063088;28;20037;-70
2022/05/06 07:29:00;;;;;;;21.38;9.10;;;;;;;;;;5060155;28;20048;-70
2022/05/06 07:31:25;;;;;;;13.50;8.07;;;;;;;;;;5067505;28;20032;-70
2022/05/06 07:33:50;;;;;;;15.40;8.73;;;;;;;;;;5060063;28;20024;-70
2022/05/06 07:36:16;;;;;;;21.15;9.05;;;;;;;;;;5059978;28;20367;-70
2022/05/06 07:38:41;;;;;;;16.30;8.88;;;;;;;;;;5066820;28;20879;-70
2022/05/06 07:41:07;;;;;;;16.23;8.77;;;;;;;;;;5055293;28;20033;-70
2022/05/06 07:43:33;;;;;;;15.45;8.55;;;;;;;;;;5071231;28;20037;-70
2022/05/06 07:45:58;;;;;;;17.05;8.68;;;;;;;;;;5064061;28;20637;-69
2022/05/06 07:48:23;;;;;;;15.27;8.10;;;;;;;;;;5069849;28;20522;-70
2022/05/06 07:50:49;;;;;;;17.38;8.70;;;;;;;;;;5071037;28;20043;-70
2022/05/06 07:53:15;;;;;;;19.58;8.82;;;;;;;;;;5071113;28;20116;-70
2022/05/06 07:55:42;;;;;;;15.55;8.20;;;;;;;;;;5064033;28;20439;-70
2022/05/06 07:58:07;;;;;;;19.27;9.50;;;;;;;;;;5066720;28;20029;-70
2022/05/06 08:00:33;;;;;;;16.88;8.32;;;;;;;;;;5071106;28;20039;-70
2022/05/06 08:05:47;;;;;;;17.25;8.95;;;;;;;;;;5061437;28;20091;-70
2022/05/06 08:08:13;;;;;;;19.95;10.48;;;;;;;;;;5056283;28;20511;-70
2022/05/06 08:10:39;;;;;;;22.50;11.32;;;;;;;;;;5060948;28;20124;-70
2022/05/06 08:13:06;;;;;;;23.40;11.23;;;;;;;;;;5071532;28;20036;-70
2022/05/06 08:15:31;;;;;;;21.13;10.98;;;;;;;;;;5067555;28;20041;-70
2022/05/06 08:17:57;;;;;;;19.48;10.45;;;;;;;;;;5063059;28;20043;-70
2022/05/06 08:20:22;;;;;;;16.75;9.50;;;;;;;;;;5070541;28;20128;-70
2022/05/06 08:22:47;;;;;;;22.45;10.13;;;;;;;;;;5065660;28;20103;-70
2022/05/06 08:25:13;;;;;;;20.15;10.50;;;;;;;;;;5058219;28;20054;-70
2022/05/06 08:27:39;;;;;;;20.27;11.65;;;;;;;;;;5059048;28;20059;-70
2022/05/06 08:30:05;;;;;;;19.25;10.15;;;;;;;;;;5050645;28;20065;-70
2022/05/06 08:32:31;;;;;;;18.52;10.18;;;;;;;;;;5049880;28;20044;-70
2022/05/06 08:34:56;;;;;;;22.27;11.75;;;;;;;;;;5061632;28;20044;-70
2022/05/06 08:37:22;;;;;;;22.05;12.20;;;;;;;;;;5050275;28;20098;-69
2022/05/06 08:39:47;;;;;;;23.33;11.82;;;;;;;;;;5051092;28;20100;-70
2022/05/06 08:42:19;;;;;;;26.33;13.15;;;;;;;;;;5050288;28;20033;-70
2022/05/06 08:53:02;;;;;;;30.60;14.57;;;;;;;;;;5051395;28;20051;-69
2022/05/06 08:55:28;;;;;;;34.35;16.33;;;;;;;;;;5051573;28;20068;-69
2022/05/06 08:57:54;;;;;;;31.35;16.83;;;;;;;;;;5054962;28;20024;-69
2022/05/06 09:00:24;;;;;;;31.85;16.80;;;;;;;;;;5063905;28;20040;-69
2022/05/06 09:02:50;;;;;;;31.05;15.60;;;;;;;;;;5068761;28;20025;-69
2022/05/06 09:05:17;;;;;;;30.35;15.10;;;;;;;;;;5061822;28;20414;-69
2022/05/06 09:07:57;;;;;;;25.55;13.90;;;;;;;;;;5065132;28;20060;-69
2022/05/06 09:10:22;;;;;;;22.70;12.40;;;;;;;;;;5054105;28;20388;-69
2022/05/06 09:12:53;;;;;;;25.08;13.73;;;;;;;;;;5055634;28;20024;-69
2022/05/06 09:18:05;;;;;;;24.58;13.77;;;;;;;;;;5064052;28;20039;-69
2022/05/06 09:20:31;;;;;;;22.48;12.82;;;;;;;;;;5065896;28;20041;-69
2022/05/06 09:22:57;;;;;;;24.13;12.68;;;;;;;;;;5064137;28;20806;-69
2022/05/06 09:25:40;;;;;;;23.85;12.45;;;;;;;;;;5052986;28;20036;-69
2022/05/06 09:28:10;;;;;;;21.00;11.85;;;;;;;;;;5067118;28;20529;-69
2022/05/06 09:30:36;;;;;;;18.50;10.73;;;;;;;;;;5062312;28;20185;-69
2022/05/06 09:33:02;;;;;;;18.77;10.95;;;;;;;;;;5064682;28;20029;-69
2022/05/06 09:35:28;;;;;;;18.02;9.90;;;;;;;;;;5056259;28;20381;-70
2022/05/06 09:37:54;;;;;;;17.10;10.57;;;;;;;;;;5057132;28;20041;-69
2022/05/06 09:40:26;;;;;;;17.25;9.95;;;;;;;;;;5054007;28;20021;-69
2022/05/06 09:42:58;;;;;;;17.35;9.77;;;;;;;;;;5062090;28;20025;-69
2022/05/06 09:45:43;;;;;;;17.63;10.00;;;;;;;;;;5058729;28;20071;-69
2022/05/06 09:48:09;;;;;;;17.08;9.88;;;;;;;;;;5063049;28;20533;-68
2022/05/06 09:50:38;;;;;;;19.77;10.10;;;;;;;;;;5061920;28;20419;-69
2022/05/06 09:53:07;;;;;;;16.67;9.88;;;;;;;;;;5068794;28;20479;-69
2022/05/06 09:55:35;;;;;;;14.27;9.20;;;;;;;;;;5067277;28;20036;-70
2022/05/06 09:58:01;;;;;;;15.95;10.50;;;;;;;;;;5051778;28;20028;-69
2022/05/06 10:00:27;;;;;;;15.88;9.80;;;;;;;;;;5051561;28;20041;-69
2022/05/06 10:02:53;;;;;;;13.80;9.13;;;;;;;;;;5059139;28;20510;-69
2022/05/06 10:05:18;;;;;;;15.77;9.43;;;;;;;;;;5063402;28;20474;-69
2022/05/06 10:07:44;;;;;;;14.48;8.32;;;;;;;;;;5062734;28;20029;-69
2022/05/06 10:10:16;;;;;;;16.08;8.45;;;;;;;;;;5055548;28;20025;-69
2022/05/06 10:12:47;;;;;;;13.63;8.95;;;;;;;;;;5059359;28;20033;-69
2022/05/06 10:15:13;;;;;;;16.35;9.13;;;;;;;;;;5057764;28;20086;-69
2022/05/06 10:18:29;;;;;;;16.25;9.25;;;;;;;;;;5059774;28;20063;-69
2022/05/06 10:20:55;;;;;;;15.63;9.30;;;;;;;;;;5046873;28;20064;-70
2022/05/06 10:23:23;;;;;;;14.73;9.60;;;;;;;;;;5062308;28;20040;-69
2022/05/06 10:25:50;;;;;;;16.38;9.80;;;;;;;;;;5057042;28;20033;-69
2022/05/06 10:34:12;;;;;;;14.13;8.80;;;;;;;;;;5052492;28;20486;-69
2022/05/06 10:36:50;;;;;;;14.35;7.80;;;;;;;;;;5064603;28;20124;-69
2022/05/06 10:39:27;;;;;;;10.05;6.78;;;;;;;;;;5060378;28;20069;-69
2022/05/06 10:42:09;;;;;;;11.23;7.22;;;;;;;;;;5067720;28;20032;-69
2022/05/06 10:44:48;;;;;;;11.20;7.15;;;;;;;;;;5053274;28;20509;-69
2022/05/06 10:47:19;;;;;;;10.70;6.78;;;;;;;;;;5054949;28;20039;-69
2022/05/06 10:49:52;;;;;;;11.38;6.95;;;;;;;;;;5059827;28;20044;-70
2022/05/06 10:52:24;;;;;;;11.55;7.47;;;;;;;;;;5067357;28;20025;-69
2022/05/06 10:54:59;;;;;;;12.15;7.32;;;;;;;;;;5050287;28;20016;-70
2022/05/06 10:57:29;;;;;;;11.38;7.10;;;;;;;;;;5058650;28;20037;-70
2022/05/06 11:00:02;;;;;;;10.55;7.00;;;;;;;;;;5061610;28;20075;-69
2022/05/06 11:02:29;;;;;;;10.23;6.50;;;;;;;;;;5057918;28;20067;-70
2022/05/06 11:04:55;;;;;;;10.18;6.57;;;;;;;;;;5060009;28;20036;-70
2022/05/06 11:07:21;;;;;;;9.77;6.03;;;;;;;;;;5061392;28;20043;-70
2022/05/06 11:09:47;;;;;;;10.23;5.88;;;;;;;;;;5065183;28;20020;-70
2022/05/06 11:12:28;;;;;;;10.95;5.47;;;;;;;;;;5058493;28;20059;-69
2022/05/06 11:14:57;;;;;;;8.00;5.13;;;;;;;;;;5053773;28;20060;-70
2022/05/06 11:17:24;;;;;;;7.55;5.10;;;;;;;;;;5063994;28;20457;-69
2022/05/06 11:19:50;;;;;;;8.07;4.78;;;;;;;;;;5061203;28;20414;-70
2022/05/06 11:22:16;;;;;;;7.20;5.15;;;;;;;;;;5063465;28;20638;-70
2022/05/06 11:24:43;;;;;;;8.85;5.68;;;;;;;;;;5053204;28;20012;-69
2022/05/06 11:27:17;;;;;;;10.60;6.15;;;;;;;;;;5059028;28;20449;-70
2022/05/06 11:30:00;;;;;;;12.05;6.60;;;;;;;;;;5049331;28;20037;-70
2022/05/06 11:32:27;;;;;;;9.45;5.78;;;;;;;;;;5062462;28;20048;-70
2022/05/06 11:35:01;;;;;;;9.07;5.40;;;;;;;;;;5060759;28;20410;-70
2022/05/06 11:37:32;;;;;;;9.63;5.78;;;;;;;;;;5057293;28;20115;-70
2022/05/06 11:42:42;;;;;;;9.32;6.22;;;;;;;;;;5061464;28;20101;-70
2022/05/06 11:48:02;;;;;;;10.75;6.10;;;;;;;;;;5054562;28;20119;-69
2022/05/06 11:50:28;;;;;;;11.93;6.50;;;;;;;;;;5057049;28;20047;-70
2022/05/06 11:52:54;;;;;;;10.55;6.20;;;;;;;;;;5049236;28;20041;-70
2022/05/06 11:55:20;;;;;;;9.32;6.03;;;;;;;;;;5061517;28;20064;-70
2022/05/06 11:57:45;;;;;;;8.75;5.93;;;;;;;;;;5061838;28;20099;-70
2022/05/06 12:00:15;;;;;;;10.13;6.10;;;;;;;;;;5054957;28;20032;-70
2022/05/06 12:02:48;;;;;;;9.05;6.00;;;;;;;;;;5057677;28;20040;-70
2022/05/06 12:05:14;;;;;;;;;;;;;;;;;;5054054;28;20616;-72
2022/05/06 12:07:40;;;;;;;9.70;6.10;;;;;;;;;;5054865;28;19925;-70
2022/05/06 12:10:06;;;;;;;8.60;6.22;;;;;;;;;;5057446;28;20029;-71
2022/05/06 12:12:31;;;;;;;8.82;5.90;;;;;;;;;;5060592;28;20091;-71
2022/05/06 12:15:10;;;;;;;7.38;5.22;;;;;;;;;;5051065;28;20029;-72
2022/05/06 12:17:38;;;;;;;9.32;5.60;;;;;;;;;;5053947;28;20068;-72
2022/05/06 12:20:04;;;;;;;10.40;5.80;;;;;;;;;;5056573;28;20037;-73
2022/05/06 12:22:29;;;;;;;9.60;5.03;;;;;;;;;;5052578;28;20047;-73
2022/05/06 12:24:58;;;;;;;7.80;5.57;;;;;;;;;;5059900;28;20021;-72
2022/05/06 12:27:37;;;;;;;8.00;5.47;;;;;;;;;;5058819;28;20113;-72
2022/05/06 12:30:03;;;;;;;9.30;5.78;;;;;;;;;;5061135;28;20075;-72
2022/05/06 12:32:29;;;;;;;10.65;5.82;;;;;;;;;;5062137;28;20035;-72
2022/05/06 12:35:09;;;;;;;8.43;5.60;;;;;;;;;;5064208;28;20040;-73
2022/05/06 12:37:35;;;;;;;7.97;5.50;;;;;;;;;;5058961;28;20140;-72
2022/05/06 12:40:01;;;;;;;11.32;6.05;;;;;;;;;;5061860;28;20127;-73
2022/05/06 12:42:26;;;;;;;9.40;5.70;;;;;;;;;;5056615;28;20128;-73
2022/05/06 12:44:52;;;;;;;9.38;6.00;;;;;;;;;;5065733;28;20099;-73
2022/05/06 12:50:04;;;;;;;8.88;5.43;;;;;;;;;;5056619;28;20124;-73
2022/05/06 12:52:35;;;;;;;10.93;5.75;;;;;;;;;;5062676;28;20522;-73
2022/05/06 12:55:01;;;;;;;9.98;5.30;;;;;;;;;;5057504;28;20074;-73
2022/05/06 12:57:26;;;;;;;8.73;5.35;;;;;;;;;;5062208;28;20037;-72
2022/05/06 12:59:51;;;;;;;10.18;5.63;;;;;;;;;;5059839;28;20107;-72
2022/05/06 13:02:17;;;;;;;11.57;6.35;;;;;;;;;;5056820;28;20048;-72
2022/05/06 13:04:43;;;;;;;11.88;6.43;;;;;;;;;;5060887;28;20569;-73
2022/05/06 13:07:08;;;;;;;9.70;5.70;;;;;;;;;;5058118;28;20112;-72
2022/05/06 13:09:34;;;;;;;10.30;5.50;;;;;;;;;;5060585;28;20045;-72
2022/05/06 13:12:00;;;;;;;12.32;6.13;;;;;;;;;;5054477;28;20147;-71
2022/05/06 13:14:25;;;;;;;10.10;5.88;;;;;;;;;;5055992;28;20037;-71
2022/05/06 13:16:53;;;;;;;17.10;6.72;;;;;;;;;;5061706;28;20036;-71
2022/05/06 13:19:19;;;;;;;12.65;6.53;;;;;;;;;;5062339;28;20032;-71
2022/05/06 13:21:45;;;;;;;11.68;6.50;;;;;;;;;;5061219;28;20434;-71
2022/05/06 13:24:10;;;;;;;11.13;5.75;;;;;;;;;;5057789;28;20139;-71
2022/05/06 13:26:38;;;;;;;10.65;5.43;;;;;;;;;;5051318;28;20742;-72
2022/05/06 13:29:04;;;;;;;9.80;5.43;;;;;;;;;;5062556;28;20420;-71
2022/05/06 13:31:31;;;;;;;10.15;5.78;;;;;;;;;;5059593;28;20033;-71
2022/05/06 13:33:56;;;;;;;12.13;5.90;;;;;;;;;;5058779;28;20036;-71
2022/05/06 13:36:21;;;;;;;11.18;5.57;;;;;;;;;;5064227;28;20037;-71
2022/05/06 13:38:47;;;;;;;11.23;4.30;;;;;;;;;;5065672;28;20033;-70
2022/05/06 13:41:13;;;;;;;10.88;5.28;;;;;;;;;;5054935;28;20024;-71
2022/05/06 13:43:39;;;;;;;8.70;4.63;;;;;;;;;;5062121;28;20067;-72
2022/05/06 13:46:05;;;;;;;11.13;5.72;;;;;;;;;;5063483;28;20020;-71
2022/05/06 13:48:31;;;;;;;5.78;4.53;;;;;;;;;;5058441;28;20116;-72
2022/05/06 13:50:56;;;;;;;10.80;6.65;;;;;;;;;;5054755;28;20045;-72
2022/05/06 13:53:22;;;;;;;12.60;6.50;;;;;;;;;;5054457;28;20037;-72
2022/05/06 14:01:16;;;;;;;11.73;7.20;;;;;;;;;;5062436;28;20572;-71
2022/05/06 14:03:41;;;;;;;9.85;6.65;;;;;;;;;;5053212;28;20037;-72
2022/05/06 14:06:07;;;;;;;10.30;6.00;;;;;;;;;;5062737;28;20033;-72
2022/05/06 14:08:32;;;;;;;10.90;6.15;;;;;;;;;;5061452;28;20037;-71
2022/05/06 14:10:57;;;;;;;9.32;6.18;;;;;;;;;;5065148;28;20039;-71
2022/05/06 14:13:23;;;;;;;8.95;6.07;;;;;;;;;;5064338;28;20452;-72
2022/05/06 14:15:49;;;;;;;7.28;5.43;;;;;;;;;;5063445;28;20372;-72
2022/05/06 14:18:14;;;;;;;7.80;5.43;;;;;;;;;;5062063;28;20036;-72
2022/05/06 14:20:39;;;;;;;10.57;5.80;;;;;;;;;;5063599;28;20021;-72
2022/05/06 14:23:05;;;;;;;10.80;6.50;;;;;;;;;;5058005;28;20033;-72
2022/05/06 14:25:30;;;;;;;9.00;5.93;;;;;;;;;;5057750;28;20085;-71
2022/05/06 14:27:56;;;;;;;9.10;5.93;;;;;;;;;;5054275;28;20052;-72
2022/05/06 14:30:21;;;;;;;9.73;6.05;;;;;;;;;;5053840;28;20098;-72
2022/05/06 14:32:47;;;;;;;10.85;6.60;;;;;;;;;;5055624;28;20037;-71
2022/05/06 14:35:16;;;;;;;9.38;5.80;;;;;;;;;;5065098;28;20028;-72
2022/05/06 14:37:55;;;;;;;9.48;5.97;;;;;;;;;;5052986;28;20033;-71
2022/05/06 14:40:21;;;;;;;8.20;5.43;;;;;;;;;;5061474;28;20027;-71
2022/05/06 14:42:47;;;;;;;15.20;6.30;;;;;;;;;;5053700;28;20028;-71
2022/05/06 14:45:13;;;;;;;10.05;5.72;;;;;;;;;;5053873;28;20422;-72
2022/05/06 14:47:39;;;;;;;9.32;5.65;;;;;;;;;;5056234;28;20217;-72
2022/05/06 14:50:06;;;;;;;7.68;4.90;;;;;;;;;;5055546;28;20037;-72
2022/05/06 14:52:33;;;;;;;10.70;5.60;;;;;;;;;;5061890;28;20139;-72
2022/05/06 14:55:00;;;;;;;12.48;6.68;;;;;;;;;;5055574;28;20032;-72
2022/05/06 14:57:25;;;;;;;8.52;5.75;;;;;;;;;;5059784;28;20641;-71
2022/05/06 14:59:50;;;;;;;8.00;5.50;;;;;;;;;;5061609;28;20108;-72
2022/05/06 15:02:16;;;;;;;8.68;5.10;;;;;;;;;;5056519;28;20041;-71
2022/05/06 15:04:41;;;;;;;8.07;5.00;;;;;;;;;;5057348;28;20067;-71
2022/05/06 15:07:07;;;;;;;8.23;4.88;;;;;;;;;;5051945;28;20124;-72
2022/05/06 15:09:33;;;;;;;7.88;4.93;;;;;;;;;;5051704;28;20041;-72
2022/05/06 15:11:58;;;;;;;7.88;4.60;;;;;;;;;;5054077;28;20431;-72
2022/05/06 15:14:25;;;;;;;8.60;5.47;;;;;;;;;;5052964;28;20082;-73
2022/05/06 15:16:51;;;;;;;7.60;4.75;;;;;;;;;;5050510;28;20040;-73
2022/05/06 15:19:27;;;;;;;8.50;4.63;;;;;;;;;;5051343;28;20017;-72
2022/05/06 15:21:53;;;;;;;7.07;4.40;;;;;;;;;;5056154;28;20024;-72
2022/05/06 15:24:24;;;;;;;5.03;3.80;;;;;;;;;;5051123;28;20081;-72